sensor_id;sensor_type;location;lat;lon;timestamp;temperature;humidity
28863;DHT22;15994;51.796;13.006;2022-12-18T01:02:40;-2.00;99.90
28863;DHT22;15994;51.796;13.006;2022-12-18T01:05:07;-2.00;99.90
28863;DHT22;15994;51.796;13.006;2022-12-18T01:07:33;-2.20;99.90
28863;DHT22;15994;51.796;13.006;2022-12-18T01:10:00;-2.40;99.90
28863;DHT22;15994;51.796;13.006;2022-12-18T01:12:26;-2.40;99.90
28863;DHT22;15994;51.796;13.006;2022-12-18T01:14:53;-2.20;99.90
28863;DHT22;15994;51.796;13.006;2022-12-18T01:17:19;-2.20;99.90
28863;DHT22;15994;51.796;13.006;2022-12-18T01:19:46;-2.20;99.90
28863;DHT22;15994;51.796;13.006;2022-12-18T01:22:12;-2.10;99.90
28863;DHT22;15994;51.796;13.006;2022-12-18T01:24:41;-2.10;99.90
28863;DHT22;15994;51.796;13.006;2022-12-18T01:27:07;-2.10;99.90
28863;DHT22;15994;51.796;13.006;2022-12-18T01:29:34;-2.20;99.90
28863;DHT22;15994;51.796;13.006;2022-12-18T01:32:00;-2.20;99.90
28863;DHT22;15994;51.796;13.006;2022-12-18T01:34:27;-2.10;99.90
28863;DHT22;15994;51.796;13.006;2022-12-18T01:36:53;-2.20;99.90
28863;DHT22;15994;51.796;13.006;2022-12-18T01:39:20;-2.30;99.90
28863;DHT22;15994;51.796;13.006;2022-12-18T01:41:47;-2.00;99.90
28863;DHT22;15994;51.796;13.006;2022-12-18T01:44:47;-2.20;99.90
28863;DHT22;15994;51.796;13.006;2022-12-18T01:47:36;-2.20;99.90
28863;DHT22;15994;51.796;13.006;2022-12-18T01:50:12;-2.10;99.90
28863;DHT22;15994;51.796;13.006;2022-12-18T01:52:39;-2.20;99.90
28863;DHT22;15994;51.796;13.006;2022-12-18T01:55:07;-2.10;99.90
28863;DHT22;15994;51.796;13.006;2022-12-18T01:57:34;-2.00;99.90
28863;DHT22;15994;51.796;13.006;2022-12-18T02:00:03;-2.10;99.90
28863;DHT22;15994;51.796;13.006;2022-12-18T02:02:30;-1.90;99.90
28863;DHT22;15994;51.796;13.006;2022-12-18T02:04:56;-2.10;99.90
28863;DHT22;15994;51.796;13.006;2022-12-18T02:12:17;-2.00;99.90
28863;DHT22;15994;51.796;13.006;2022-12-18T02:14:55;-2.20;99.90
28863;DHT22;15994;51.796;13.006;2022-12-18T02:17:34;-1.90;99.90
28863;DHT22;15994;51.796;13.006;2022-12-18T02:22:49;-2.10;99.90
28863;DHT22;15994;51.796;13.006;2022-12-18T02:27:52;-2.10;99.90
28863;DHT22;15994;51.796;13.006;2022-12-18T02:30:21;-2.10;99.90
28863;DHT22;15994;51.796;13.006;2022-12-18T02:32:50;-2.00;99.90
28863;DHT22;15994;51.796;13.006;2022-12-18T02:35:27;-2.00;99.90
28863;DHT22;15994;51.796;13.006;2022-12-18T02:37:55;-1.90;99.90
28863;DHT22;15994;51.796;13.006;2022-12-18T02:40:23;-1.90;99.90
28863;DHT22;15994;51.796;13.006;2022-12-18T02:42:50;-1.90;99.90
28863;DHT22;15994;51.796;13.006;2022-12-18T02:45:17;-1.90;99.90
28863;DHT22;15994;51.796;13.006;2022-12-18T02:47:45;-1.90;99.90
28863;DHT22;15994;51.796;13.006;2022-12-18T02:50:20;-1.80;99.90
28863;DHT22;15994;51.796;13.006;2022-12-18T02:52:55;-1.80;99.90
28863;DHT22;15994;51.796;13.006;2022-12-18T03:00:58;-1.80;99.90
28863;DHT22;15994;51.796;13.006;2022-12-18T03:05:57;-1.80;99.90
28863;DHT22;15994;51.796;13.006;2022-12-18T03:08:28;-1.80;99.90
28863;DHT22;15994;51.796;13.006;2022-12-18T03:11:02;-1.80;99.90
28863;DHT22;15994;51.796;13.006;2022-12-18T03:16:10;-1.80;99.90
28863;DHT22;15994;51.796;13.006;2022-12-18T03:18:38;-1.90;99.90
28863;DHT22;15994;51.796;13.006;2022-12-18T03:21:06;-1.90;99.90
28863;DHT22;15994;51.796;13.006;2022-12-18T03:23:35;-2.00;99.90
28863;DHT22;15994;51.796;13.006;2022-12-18T03:26:04;-2.00;99.90
28863;DHT22;15994;51.796;13.006;2022-12-18T03:28:32;-1.80;99.90
28863;DHT22;15994;51.796;13.006;2022-12-18T03:31:01;-1.90;99.90
28863;DHT22;15994;51.796;13.006;2022-12-18T03:33:32;-2.00;99.90
28863;DHT22;15994;51.796;13.006;2022-12-18T03:36:00;-2.00;99.90
28863;DHT22;15994;51.796;13.006;2022-12-18T03:38:27;-2.00;99.90
28863;DHT22;15994;51.796;13.006;2022-12-18T03:40:57;-1.90;99.90
28863;DHT22;15994;51.796;13.006;2022-12-18T03:43:30;-2.10;99.90
28863;DHT22;15994;51.796;13.006;2022-12-18T03:48:44;-2.10;99.90
28863;DHT22;15994;51.796;13.006;2022-12-18T03:51:14;-2.10;99.90
28863;DHT22;15994;51.796;13.006;2022-12-18T03:53:50;-2.00;99.90
28863;DHT22;15994;51.796;13.006;2022-12-18T03:56:19;-2.00;99.90
28863;DHT22;15994;51.796;13.006;2022-12-18T03:58:47;-2.00;99.90
28863;DHT22;15994;51.796;13.006;2022-12-18T04:01:15;-2.00;99.90
28863;DHT22;15994;51.796;13.006;2022-12-18T04:03:42;-2.00;99.90
28863;DHT22;15994;51.796;13.006;2022-12-18T04:06:09;-2.00;99.90
28863;DHT22;15994;51.796;13.006;2022-12-18T04:08:35;-2.00;99.90
28863;DHT22;15994;51.796;13.006;2022-12-18T04:11:02;-2.00;99.90
28863;DHT22;15994;51.796;13.006;2022-12-18T04:13:30;-2.00;99.90
28863;DHT22;15994;51.796;13.006;2022-12-18T04:15:58;-1.90;99.90
28863;DHT22;15994;51.796;13.006;2022-12-18T04:18:24;-1.90;99.90
28863;DHT22;15994;51.796;13.006;2022-12-18T04:20:51;-1.90;99.90
28863;DHT22;15994;51.796;13.006;2022-12-18T04:23:17;-1.90;99.90
28863;DHT22;15994;51.796;13.006;2022-12-18T04:25:44;-2.00;99.90
28863;DHT22;15994;51.796;13.006;2022-12-18T04:28:11;-2.00;99.90
28863;DHT22;15994;51.796;13.006;2022-12-18T04:30:37;-2.00;99.90
28863;DHT22;15994;51.796;13.006;2022-12-18T04:33:08;-2.00;99.90
28863;DHT22;15994;51.796;13.006;2022-12-18T04:35:34;-2.00;99.90
28863;DHT22;15994;51.796;13.006;2022-12-18T04:38:01;-2.10;99.90
28863;DHT22;15994;51.796;13.006;2022-12-18T04:40:27;-2.00;99.90
28863;DHT22;15994;51.796;13.006;2022-12-18T04:42:54;-2.00;99.90
28863;DHT22;15994;51.796;13.006;2022-12-18T04:45:20;-2.00;99.90
28863;DHT22;15994;51.796;13.006;2022-12-18T04:47:47;-2.20;99.90
28863;DHT22;15994;51.796;13.006;2022-12-18T04:50:13;-2.20;99.90
28863;DHT22;15994;51.796;13.006;2022-12-18T04:52:40;-2.20;99.90
28863;DHT22;15994;51.796;13.006;2022-12-18T04:55:06;-2.30;99.90
28863;DHT22;15994;51.796;13.006;2022-12-18T04:57:33;-2.40;99.90
28863;DHT22;15994;51.796;13.006;2022-12-18T04:59:59;-2.30;99.90
28863;DHT22;15994;51.796;13.006;2022-12-18T05:02:26;-2.30;99.90
28863;DHT22;15994;51.796;13.006;2022-12-18T05:04:52;-2.30;99.90
28863;DHT22;15994;51.796;13.006;2022-12-18T05:07:19;-2.50;99.90
28863;DHT22;15994;51.796;13.006;2022-12-18T05:09:45;-2.40;99.90
28863;DHT22;15994;51.796;13.006;2022-12-18T05:12:12;-2.60;99.90
28863;DHT22;15994;51.796;13.006;2022-12-18T05:14:38;-2.60;99.90
28863;DHT22;15994;51.796;13.006;2022-12-18T05:17:04;-2.60;99.90
28863;DHT22;15994;51.796;13.006;2022-12-18T05:19:31;-2.70;99.90
28863;DHT22;15994;51.796;13.006;2022-12-18T05:21:57;-2.70;99.90
28863;DHT22;15994;51.796;13.006;2022-12-18T05:24:24;-2.70;99.90
28863;DHT22;15994;51.796;13.006;2022-12-18T05:26:50;-2.70;99.90
28863;DHT22;15994;51.796;13.006;2022-12-18T05:29:17;-2.60;99.90
28863;DHT22;15994;51.796;13.006;2022-12-18T05:31:43;-2.70;99.90
28863;DHT22;15994;51.796;13.006;2022-12-18T05:34:10;-2.80;99.90
28863;DHT22;15994;51.796;13.006;2022-12-18T05:36:36;-2.70;99.90
28863;DHT22;15994;51.796;13.006;2022-12-18T05:39:03;-2.70;99.90
28863;DHT22;15994;51.796;13.006;2022-12-18T05:41:29;-2.60;99.90
28863;DHT22;15994;51.796;13.006;2022-12-18T05:43:57;-2.90;99.90
28863;DHT22;15994;51.796;13.006;2022-12-18T05:46:24;-2.80;99.90
28863;DHT22;15994;51.796;13.006;2022-12-18T05:48:50;-2.90;99.90
28863;DHT22;15994;51.796;13.006;2022-12-18T05:51:18;-3.00;99.90
28863;DHT22;15994;51.796;13.006;2022-12-18T05:53:45;-3.00;99.90
28863;DHT22;15994;51.796;13.006;2022-12-18T05:56:15;-3.00;99.90
28863;DHT22;15994;51.796;13.006;2022-12-18T05:58:43;-3.10;99.90
28863;DHT22;15994;51.796;13.006;2022-12-18T06:03:39;-3.30;99.90
28863;DHT22;15994;51.796;13.006;2022-12-18T06:06:16;-3.40;99.90
28863;DHT22;15994;51.796;13.006;2022-12-18T06:08:43;-3.50;99.90
28863;DHT22;15994;51.796;13.006;2022-12-18T06:11:10;-3.70;99.90
28863;DHT22;15994;51.796;13.006;2022-12-18T06:13:37;-3.60;99.90
28863;DHT22;15994;51.796;13.006;2022-12-18T06:16:04;-3.60;99.90
28863;DHT22;15994;51.796;13.006;2022-12-18T06:18:31;-3.70;99.90
28863;DHT22;15994;51.796;13.006;2022-12-18T06:20:58;-3.60;99.90
28863;DHT22;15994;51.796;13.006;2022-12-18T06:23:25;-3.70;99.90
28863;DHT22;15994;51.796;13.006;2022-12-18T06:25:52;-3.80;99.90
28863;DHT22;15994;51.796;13.006;2022-12-18T06:28:19;-3.90;99.90
28863;DHT22;15994;51.796;13.006;2022-12-18T06:30:47;-3.90;99.90
28863;DHT22;15994;51.796;13.006;2022-12-18T06:33:14;-4.00;99.90
28863;DHT22;15994;51.796;13.006;2022-12-18T06:35:40;-4.00;99.90
28863;DHT22;15994;51.796;13.006;2022-12-18T06:38:07;-4.00;99.90
28863;DHT22;15994;51.796;13.006;2022-12-18T06:40:34;-4.10;99.90
28863;DHT22;15994;51.796;13.006;2022-12-18T06:43:00;-4.10;99.90
28863;DHT22;15994;51.796;13.006;2022-12-18T06:45:34;-4.10;99.90
28863;DHT22;15994;51.796;13.006;2022-12-18T06:48:00;-4.20;99.90
28863;DHT22;15994;51.796;13.006;2022-12-18T06:50:27;-4.30;99.90
28863;DHT22;15994;51.796;13.006;2022-12-18T06:52:54;-4.40;99.90
28863;DHT22;15994;51.796;13.006;2022-12-18T06:55:20;-4.40;99.90
28863;DHT22;15994;51.796;13.006;2022-12-18T06:57:47;-4.40;99.90
28863;DHT22;15994;51.796;13.006;2022-12-18T07:00:13;-4.30;99.90
28863;DHT22;15994;51.796;13.006;2022-12-18T07:02:40;-4.30;99.90
28863;DHT22;15994;51.796;13.006;2022-12-18T07:05:06;-4.30;99.90
28863;DHT22;15994;51.796;13.006;2022-12-18T07:07:33;-4.40;99.90
28863;DHT22;15994;51.796;13.006;2022-12-18T07:10:00;-4.30;99.90
28863;DHT22;15994;51.796;13.006;2022-12-18T07:12:27;-4.30;99.90
28863;DHT22;15994;51.796;13.006;2022-12-18T07:14:53;-4.20;99.90
28863;DHT22;15994;51.796;13.006;2022-12-18T07:17:20;-4.20;99.90
28863;DHT22;15994;51.796;13.006;2022-12-18T07:19:46;-4.10;99.90
28863;DHT22;15994;51.796;13.006;2022-12-18T07:22:13;-4.20;99.90
28863;DHT22;15994;51.796;13.006;2022-12-18T07:24:39;-4.10;99.90
28863;DHT22;15994;51.796;13.006;2022-12-18T07:27:06;-4.20;99.90
28863;DHT22;15994;51.796;13.006;2022-12-18T07:29:32;-4.10;99.90
28863;DHT22;15994;51.796;13.006;2022-12-18T07:31:59;-4.00;99.90
28863;DHT22;15994;51.796;13.006;2022-12-18T07:34:26;-3.90;99.90
28863;DHT22;15994;51.796;13.006;2022-12-18T07:36:52;-4.00;99.90
28863;DHT22;15994;51.796;13.006;2022-12-18T07:39:19;-3.80;99.90
28863;DHT22;15994;51.796;13.006;2022-12-18T07:41:45;-3.80;99.90
28863;DHT22;15994;51.796;13.006;2022-12-18T07:44:32;-3.80;99.90
28863;DHT22;15994;51.796;13.006;2022-12-18T07:46:58;-3.80;99.90
28863;DHT22;15994;51.796;13.006;2022-12-18T07:49:24;-3.70;99.90
28863;DHT22;15994;51.796;13.006;2022-12-18T07:51:51;-3.70;99.90
28863;DHT22;15994;51.796;13.006;2022-12-18T07:54:20;-3.60;99.90
28863;DHT22;15994;51.796;13.006;2022-12-18T07:56:46;-3.60;99.90
28863;DHT22;15994;51.796;13.006;2022-12-18T07:59:13;-3.50;99.90
28863;DHT22;15994;51.796;13.006;2022-12-18T08:18:48;-3.10;99.90
28863;DHT22;15994;51.796;13.006;2022-12-18T08:21:16;-2.90;99.90
28863;DHT22;15994;51.796;13.006;2022-12-18T08:23:43;-3.00;99.90
28863;DHT22;15994;51.796;13.006;2022-12-18T08:26:10;-2.90;99.90
28863;DHT22;15994;51.796;13.006;2022-12-18T08:28:37;-2.90;99.90
28863;DHT22;15994;51.796;13.006;2022-12-18T08:31:03;-2.90;99.90
28863;DHT22;15994;51.796;13.006;2022-12-18T08:33:30;-2.80;99.90
28863;DHT22;15994;51.796;13.006;2022-12-18T08:35:57;-2.90;99.90
28863;DHT22;15994;51.796;13.006;2022-12-18T08:38:24;-2.90;99.90
28863;DHT22;15994;51.796;13.006;2022-12-18T08:40:58;-2.80;99.90
28863;DHT22;15994;51.796;13.006;2022-12-18T08:43:24;-2.60;99.90
28863;DHT22;15994;51.796;13.006;2022-12-18T08:46:08;-2.50;99.90
28863;DHT22;15994;51.796;13.006;2022-12-18T08:48:35;-2.50;99.90
28863;DHT22;15994;51.796;13.006;2022-12-18T08:51:02;-2.40;99.90
28863;DHT22;15994;51.796;13.006;2022-12-18T08:53:28;-2.40;99.90
28863;DHT22;15994;51.796;13.006;2022-12-18T08:55:56;-2.30;99.90
28863;DHT22;15994;51.796;13.006;2022-12-18T08:58:22;-2.40;99.90
28863;DHT22;15994;51.796;13.006;2022-12-18T09:00:48;-2.20;99.90
28863;DHT22;15994;51.796;13.006;2022-12-18T09:03:16;-2.20;99.90
28863;DHT22;15994;51.796;13.006;2022-12-18T09:05:45;-2.10;99.90
28863;DHT22;15994;51.796;13.006;2022-12-18T09:08:12;-2.00;99.90
28863;DHT22;15994;51.796;13.006;2022-12-18T09:10:42;-2.10;99.90
28863;DHT22;15994;51.796;13.006;2022-12-18T09:13:10;-2.00;99.90
28863;DHT22;15994;51.796;13.006;2022-12-18T09:15:40;-1.90;99.90
28863;DHT22;15994;51.796;13.006;2022-12-18T09:18:07;-2.00;99.90
28863;DHT22;15994;51.796;13.006;2022-12-18T09:20:34;-1.80;99.90
28863;DHT22;15994;51.796;13.006;2022-12-18T09:23:01;-1.80;99.90
28863;DHT22;15994;51.796;13.006;2022-12-18T09:25:28;-1.70;99.90
28863;DHT22;15994;51.796;13.006;2022-12-18T09:28:10;-1.60;99.90
28863;DHT22;15994;51.796;13.006;2022-12-18T09:30:38;-1.60;99.90
28863;DHT22;15994;51.796;13.006;2022-12-18T09:33:04;-1.60;99.90
28863;DHT22;15994;51.796;13.006;2022-12-18T09:35:31;-1.50;99.90
28863;DHT22;15994;51.796;13.006;2022-12-18T09:37:57;-1.50;99.90
28863;DHT22;15994;51.796;13.006;2022-12-18T09:40:25;-1.40;99.90
28863;DHT22;15994;51.796;13.006;2022-12-18T09:42:54;-1.30;99.90
28863;DHT22;15994;51.796;13.006;2022-12-18T09:45:22;-1.40;99.90
28863;DHT22;15994;51.796;13.006;2022-12-18T09:47:48;-1.40;99.90
28863;DHT22;15994;51.796;13.006;2022-12-18T09:50:22;-1.40;99.90
28863;DHT22;15994;51.796;13.006;2022-12-18T09:52:51;-1.40;99.90
28863;DHT22;15994;51.796;13.006;2022-12-18T09:55:22;-1.40;99.90
28863;DHT22;15994;51.796;13.006;2022-12-18T09:57:55;-1.40;99.90
28863;DHT22;15994;51.796;13.006;2022-12-18T10:00:25;-1.50;99.90
28863;DHT22;15994;51.796;13.006;2022-12-18T10:02:53;-1.50;99.90
28863;DHT22;15994;51.796;13.006;2022-12-18T10:07:55;-1.60;99.90
28863;DHT22;15994;51.796;13.006;2022-12-18T10:13:00;-1.50;99.90
28863;DHT22;15994;51.796;13.006;2022-12-18T10:15:31;-1.50;99.90
28863;DHT22;15994;51.796;13.006;2022-12-18T10:20:48;-1.30;99.90
28863;DHT22;15994;51.796;13.006;2022-12-18T10:26:04;-1.00;99.90
28863;DHT22;15994;51.796;13.006;2022-12-18T10:28:31;-0.80;99.90
28863;DHT22;15994;51.796;13.006;2022-12-18T10:30:58;-0.70;99.90
28863;DHT22;15994;51.796;13.006;2022-12-18T10:33:27;-0.70;99.90
28863;DHT22;15994;51.796;13.006;2022-12-18T10:35:55;-0.70;99.90
28863;DHT22;15994;51.796;13.006;2022-12-18T10:38:25;-0.60;99.90
28863;DHT22;15994;51.796;13.006;2022-12-18T10:43:28;-0.40;99.90
28863;DHT22;15994;51.796;13.006;2022-12-18T10:46:07;-0.40;99.90
28863;DHT22;15994;51.796;13.006;2022-12-18T10:51:27;-0.50;99.90
28863;DHT22;15994;51.796;13.006;2022-12-18T10:53:57;-0.40;99.90
28863;DHT22;15994;51.796;13.006;2022-12-18T10:56:24;-0.50;99.90
28863;DHT22;15994;51.796;13.006;2022-12-18T10:59:05;-0.60;99.90
28863;DHT22;15994;51.796;13.006;2022-12-18T11:04:18;-0.80;99.90
28863;DHT22;15994;51.796;13.006;2022-12-18T11:07:01;-0.80;99.90
28863;DHT22;15994;51.796;13.006;2022-12-18T11:09:34;-0.80;99.90
28863;DHT22;15994;51.796;13.006;2022-12-18T11:12:02;-0.80;99.90
28863;DHT22;15994;51.796;13.006;2022-12-18T11:14:42;-0.90;99.90
28863;DHT22;15994;51.796;13.006;2022-12-18T11:19:55;-0.80;99.90
28863;DHT22;15994;51.796;13.006;2022-12-18T11:22:25;-0.90;99.90
28863;DHT22;15994;51.796;13.006;2022-12-18T11:24:54;-0.70;99.90
28863;DHT22;15994;51.796;13.006;2022-12-18T11:27:21;-0.80;99.90
28863;DHT22;15994;51.796;13.006;2022-12-18T11:29:49;-0.60;99.90
28863;DHT22;15994;51.796;13.006;2022-12-18T11:34:53;-0.50;99.90
28863;DHT22;15994;51.796;13.006;2022-12-18T11:37:21;-0.40;99.90
28863;DHT22;15994;51.796;13.006;2022-12-18T11:39:51;-0.30;99.90
28863;DHT22;15994;51.796;13.006;2022-12-18T11:45:14;0.00;99.90
28863;DHT22;15994;51.796;13.006;2022-12-18T11:50:17;0.10;99.90
28863;DHT22;15994;51.796;13.006;2022-12-18T11:52:44;0.20;99.90
28863;DHT22;15994;51.796;13.006;2022-12-18T11:55:12;0.40;99.90
28863;DHT22;15994;51.796;13.006;2022-12-18T11:57:44;0.50;99.90
28863;DHT22;15994;51.796;13.006;2022-12-18T12:00:15;0.40;99.90
28863;DHT22;15994;51.796;13.006;2022-12-18T12:08:11;0.30;99.90
28863;DHT22;15994;51.796;13.006;2022-12-18T12:10:50;0.10;99.90
28863;DHT22;15994;51.796;13.006;2022-12-18T12:20:50;0.00;99.90
28863;DHT22;15994;51.796;13.006;2022-12-18T12:26:04;-0.20;99.90
28863;DHT22;15994;51.796;13.006;2022-12-18T12:36:56;-0.50;99.90
28863;DHT22;15994;51.796;13.006;2022-12-18T12:39:30;-0.50;99.90
28863;DHT22;15994;51.796;13.006;2022-12-18T12:41:57;-0.60;99.90
28863;DHT22;15994;51.796;13.006;2022-12-18T12:44:43;-0.70;99.90
28863;DHT22;15994;51.796;13.006;2022-12-18T12:47:18;-0.70;99.90
28863;DHT22;15994;51.796;13.006;2022-12-18T12:49:46;-0.60;99.90
28863;DHT22;15994;51.796;13.006;2022-12-18T12:52:18;-0.70;99.90
28863;DHT22;15994;51.796;13.006;2022-12-18T12:54:47;-0.70;99.90
28863;DHT22;15994;51.796;13.006;2022-12-18T12:59:56;-0.70;99.90
28863;DHT22;15994;51.796;13.006;2022-12-18T13:02:29;-0.80;99.90
28863;DHT22;15994;51.796;13.006;2022-12-18T13:05:00;-0.90;99.90
28863;DHT22;15994;51.796;13.006;2022-12-18T13:12:58;-0.70;99.90
28863;DHT22;15994;51.796;13.006;2022-12-18T13:15:28;-0.90;99.90
28863;DHT22;15994;51.796;13.006;2022-12-18T13:25:51;-1.00;99.90
28863;DHT22;15994;51.796;13.006;2022-12-18T13:30:56;-0.90;99.90
28863;DHT22;15994;51.796;13.006;2022-12-18T13:36:26;-1.10;99.90
28863;DHT22;15994;51.796;13.006;2022-12-18T13:39:09;-1.10;99.90
28863;DHT22;15994;51.796;13.006;2022-12-18T13:41:36;-1.10;99.90
28863;DHT22;15994;51.796;13.006;2022-12-18T13:44:10;-1.20;99.90
28863;DHT22;15994;51.796;13.006;2022-12-18T13:46:47;-1.20;99.90
28863;DHT22;15994;51.796;13.006;2022-12-18T13:52:17;-1.00;99.90
28863;DHT22;15994;51.796;13.006;2022-12-18T13:54:55;-1.20;99.90
28863;DHT22;15994;51.796;13.006;2022-12-18T13:57:33;-1.30;99.90
28863;DHT22;15994;51.796;13.006;2022-12-18T14:02:59;-1.40;99.90
28863;DHT22;15994;51.796;13.006;2022-12-18T14:05:29;-1.30;99.90
28863;DHT22;15994;51.796;13.006;2022-12-18T14:07:59;-1.40;99.90
28863;DHT22;15994;51.796;13.006;2022-12-18T14:10:28;-1.50;99.90
28863;DHT22;15994;51.796;13.006;2022-12-18T14:12:55;-1.50;99.90
28863;DHT22;15994;51.796;13.006;2022-12-18T14:15:28;-1.60;99.90
28863;DHT22;15994;51.796;13.006;2022-12-18T14:20:25;-1.70;99.90
28863;DHT22;15994;51.796;13.006;2022-12-18T14:22:52;-1.70;99.90
28863;DHT22;15994;51.796;13.006;2022-12-18T14:25:19;-1.70;99.90
28863;DHT22;15994;51.796;13.006;2022-12-18T14:27:49;-1.80;99.90
28863;DHT22;15994;51.796;13.006;2022-12-18T14:30:32;-1.70;99.90
28863;DHT22;15994;51.796;13.006;2022-12-18T14:33:11;-1.80;99.90
28863;DHT22;15994;51.796;13.006;2022-12-18T14:35:40;-1.70;99.90
28863;DHT22;15994;51.796;13.006;2022-12-18T14:40:43;-1.80;99.90
28863;DHT22;15994;51.796;13.006;2022-12-18T14:43:10;-2.00;99.90
28863;DHT22;15994;51.796;13.006;2022-12-18T14:45:37;-1.90;99.90
28863;DHT22;15994;51.796;13.006;2022-12-18T14:50:43;-1.90;99.90
28863;DHT22;15994;51.796;13.006;2022-12-18T14:56:15;-2.20;99.90
28863;DHT22;15994;51.796;13.006;2022-12-18T14:58:49;-2.10;99.90
28863;DHT22;15994;51.796;13.006;2022-12-18T15:01:36;-2.10;99.90
28863;DHT22;15994;51.796;13.006;2022-12-18T15:04:03;-2.20;99.90
28863;DHT22;15994;51.796;13.006;2022-12-18T15:06:34;-2.20;99.90
28863;DHT22;15994;51.796;13.006;2022-12-18T15:09:03;-2.20;99.90
28863;DHT22;15994;51.796;13.006;2022-12-18T15:13:59;-2.30;99.90
28863;DHT22;15994;51.796;13.006;2022-12-18T15:16:26;-2.40;99.90
28863;DHT22;15994;51.796;13.006;2022-12-18T15:18:53;-2.40;99.90
28863;DHT22;15994;51.796;13.006;2022-12-18T15:21:19;-2.50;99.90
28863;DHT22;15994;51.796;13.006;2022-12-18T15:23:47;-2.40;99.90
28863;DHT22;15994;51.796;13.006;2022-12-18T15:26:15;-2.60;99.90
28863;DHT22;15994;51.796;13.006;2022-12-18T15:28:48;-2.70;99.90
28863;DHT22;15994;51.796;13.006;2022-12-18T15:33:43;-2.80;99.90
28863;DHT22;15994;51.796;13.006;2022-12-18T15:48:41;-3.00;99.90
28863;DHT22;15994;51.796;13.006;2022-12-18T15:51:27;-3.10;99.90
28863;DHT22;15994;51.796;13.006;2022-12-18T15:53:55;-3.00;99.90
28863;DHT22;15994;51.796;13.006;2022-12-18T15:56:22;-3.10;99.90
28863;DHT22;15994;51.796;13.006;2022-12-18T15:59:14;-3.00;99.90
28863;DHT22;15994;51.796;13.006;2022-12-18T16:01:41;-2.90;99.90
28863;DHT22;15994;51.796;13.006;2022-12-18T16:04:11;-3.00;99.90
28863;DHT22;15994;51.796;13.006;2022-12-18T16:06:38;-3.00;99.90
28863;DHT22;15994;51.796;13.006;2022-12-18T16:09:05;-3.00;99.90
28863;DHT22;15994;51.796;13.006;2022-12-18T16:11:32;-3.10;99.90
28863;DHT22;15994;51.796;13.006;2022-12-18T16:16:32;-3.20;99.90
28863;DHT22;15994;51.796;13.006;2022-12-18T16:19:00;-3.20;99.90
28863;DHT22;15994;51.796;13.006;2022-12-18T16:21:26;-3.30;99.90
28863;DHT22;15994;51.796;13.006;2022-12-18T16:23:53;-3.30;99.90
28863;DHT22;15994;51.796;13.006;2022-12-18T16:26:19;-3.30;99.90
28863;DHT22;15994;51.796;13.006;2022-12-18T16:28:46;-3.20;99.90
28863;DHT22;15994;51.796;13.006;2022-12-18T16:31:12;-3.30;99.90
28863;DHT22;15994;51.796;13.006;2022-12-18T16:33:39;-3.30;99.90
28863;DHT22;15994;51.796;13.006;2022-12-18T16:36:05;-3.30;99.90
28863;DHT22;15994;51.796;13.006;2022-12-18T16:38:32;-3.20;99.90
28863;DHT22;15994;51.796;13.006;2022-12-18T16:40:58;-3.20;99.90
28863;DHT22;15994;51.796;13.006;2022-12-18T16:43:51;-3.20;99.90
28863;DHT22;15994;51.796;13.006;2022-12-18T16:46:18;-3.20;99.90
28863;DHT22;15994;51.796;13.006;2022-12-18T16:48:44;-3.30;99.90
28863;DHT22;15994;51.796;13.006;2022-12-18T16:51:11;-3.30;99.90
28863;DHT22;15994;51.796;13.006;2022-12-18T16:53:37;-3.30;99.90
28863;DHT22;15994;51.796;13.006;2022-12-18T16:56:03;-3.30;99.90
28863;DHT22;15994;51.796;13.006;2022-12-18T16:58:30;-3.30;99.90
28863;DHT22;15994;51.796;13.006;2022-12-18T17:00:56;-3.40;99.90
28863;DHT22;15994;51.796;13.006;2022-12-18T17:03:23;-3.40;99.90
28863;DHT22;15994;51.796;13.006;2022-12-18T17:05:49;-3.30;99.90
28863;DHT22;15994;51.796;13.006;2022-12-18T17:08:16;-3.30;99.90
28863;DHT22;15994;51.796;13.006;2022-12-18T17:10:42;-3.40;99.90
28863;DHT22;15994;51.796;13.006;2022-12-18T17:13:09;-3.40;99.90
28863;DHT22;15994;51.796;13.006;2022-12-18T17:15:36;-3.40;99.90
28863;DHT22;15994;51.796;13.006;2022-12-18T17:18:02;-3.40;99.90
28863;DHT22;15994;51.796;13.006;2022-12-18T17:20:29;-3.50;99.90
28863;DHT22;15994;51.796;13.006;2022-12-18T17:22:56;-3.50;99.90
28863;DHT22;15994;51.796;13.006;2022-12-18T17:25:22;-3.40;99.90
28863;DHT22;15994;51.796;13.006;2022-12-18T17:27:49;-3.40;99.90
28863;DHT22;15994;51.796;13.006;2022-12-18T17:30:16;-3.50;99.90
28863;DHT22;15994;51.796;13.006;2022-12-18T17:32:42;-3.50;99.90
28863;DHT22;15994;51.796;13.006;2022-12-18T17:35:09;-3.50;99.90
28863;DHT22;15994;51.796;13.006;2022-12-18T17:37:35;-3.50;99.90
28863;DHT22;15994;51.796;13.006;2022-12-18T17:40:02;-3.50;99.90
28863;DHT22;15994;51.796;13.006;2022-12-18T17:42:29;-3.40;99.90
28863;DHT22;15994;51.796;13.006;2022-12-18T17:44:56;-3.40;99.90
28863;DHT22;15994;51.796;13.006;2022-12-18T17:47:23;-3.50;99.90
28863;DHT22;15994;51.796;13.006;2022-12-18T17:49:49;-3.50;99.90
28863;DHT22;15994;51.796;13.006;2022-12-18T17:52:16;-3.80;99.90
28863;DHT22;15994;51.796;13.006;2022-12-18T17:54:42;-3.80;99.90
28863;DHT22;15994;51.796;13.006;2022-12-18T17:57:09;-3.90;99.90
28863;DHT22;15994;51.796;13.006;2022-12-18T17:59:36;-3.80;99.90
28863;DHT22;15994;51.796;13.006;2022-12-18T18:02:03;-3.80;99.90
28863;DHT22;15994;51.796;13.006;2022-12-18T18:04:29;-3.80;99.90
28863;DHT22;15994;51.796;13.006;2022-12-18T18:06:56;-3.80;99.90
28863;DHT22;15994;51.796;13.006;2022-12-18T18:09:22;-3.80;99.90
28863;DHT22;15994;51.796;13.006;2022-12-18T18:11:50;-3.90;99.90
28863;DHT22;15994;51.796;13.006;2022-12-18T18:14:34;-3.90;99.90
28863;DHT22;15994;51.796;13.006;2022-12-18T18:17:00;-3.90;99.90
28863;DHT22;15994;51.796;13.006;2022-12-18T18:19:27;-3.90;99.90
28863;DHT22;15994;51.796;13.006;2022-12-18T18:21:53;-3.80;99.90
28863;DHT22;15994;51.796;13.006;2022-12-18T18:24:21;-3.70;99.90
28863;DHT22;15994;51.796;13.006;2022-12-18T18:26:48;-3.60;99.90
28863;DHT22;15994;51.796;13.006;2022-12-18T18:29:16;-3.70;99.90
28863;DHT22;15994;51.796;13.006;2022-12-18T18:31:43;-3.60;99.90
28863;DHT22;15994;51.796;13.006;2022-12-18T18:34:13;-3.50;99.90
28863;DHT22;15994;51.796;13.006;2022-12-18T18:36:40;-3.50;99.90
28863;DHT22;15994;51.796;13.006;2022-12-18T18:39:07;-3.50;99.90
28863;DHT22;15994;51.796;13.006;2022-12-18T18:41:34;-3.40;99.90
28863;DHT22;15994;51.796;13.006;2022-12-18T18:44:00;-3.40;99.90
28863;DHT22;15994;51.796;13.006;2022-12-18T18:46:27;-3.30;99.90
28863;DHT22;15994;51.796;13.006;2022-12-18T18:48:53;-3.30;99.90
28863;DHT22;15994;51.796;13.006;2022-12-18T18:51:20;-3.30;99.90
28863;DHT22;15994;51.796;13.006;2022-12-18T18:53:48;-3.30;99.90
28863;DHT22;15994;51.796;13.006;2022-12-18T18:56:15;-3.30;99.90
28863;DHT22;15994;51.796;13.006;2022-12-18T18:58:42;-3.30;99.90
28863;DHT22;15994;51.796;13.006;2022-12-18T19:01:10;-3.30;99.90
28863;DHT22;15994;51.796;13.006;2022-12-18T19:03:37;-3.20;99.90